Time;durP1;ratioP1;P1;durP2;ratioP2;P2;SDS_P1;SDS_P2;PMS_P1;PMS_P2;Temp;Humidity;BMP_temperature;BMP_pressure;BME280_temperature;BME280_humidity;BME280_pressure;Samples;Min_cycle;Max_cycle;Signal;HPM_P1;HPM_P2
2022/07/06 00:00:52;;;;;;;15.17;13.57;;;;;;;22.91;100.00;101326.31;2071173;28;20220;-69
2022/07/06 00:01:53;;;;;;;16.80;13.40;;;;;;;22.41;100.00;101254.41;2070953;28;20253;-69
2022/07/06 00:02:53;;;;;;;17.80;14.23;;;;;;;22.94;100.00;101327.34;2063148;28;20257;-69
2022/07/06 00:03:54;;;;;;;17.30;14.60;;;;;;;22.83;100.00;101327.25;2071996;28;20320;-69
2022/07/06 00:04:54;;;;;;;16.63;14.90;;;;;;;22.94;100.00;101330.97;2070161;28;20178;-69
2022/07/06 00:05:56;;;;;;;16.73;15.07;;;;;;;22.77;100.00;101298.19;2065388;28;20179;-69
2022/07/06 00:06:57;;;;;;;17.07;15.10;;;;;;;22.98;100.00;101334.31;2072439;28;20185;-69
2022/07/06 00:07:57;;;;;;;14.27;12.87;;;;;;;23.01;100.00;101333.34;2072743;28;20260;-69
2022/07/06 00:08:58;;;;;;;13.90;12.60;;;;;;;22.17;100.00;101197.47;2072064;28;20197;-69
2022/07/06 00:09:58;;;;;;;13.53;12.13;;;;;;;23.00;100.00;101331.00;2072429;28;20208;-69
2022/07/06 00:11:00;;;;;;;12.93;11.67;;;;;;;22.99;100.00;101321.75;2072251;28;20248;-69
2022/07/06 00:12:00;;;;;;;15.23;12.57;;;;;;;23.01;100.00;101326.88;2067764;28;20253;-69
2022/07/06 00:13:01;;;;;;;13.63;12.07;;;;;;;23.00;100.00;101311.22;2066521;28;20247;-68
2022/07/06 00:14:02;;;;;;;13.23;11.73;;;;;;;22.86;100.00;101304.41;2070097;28;20224;-69
2022/07/06 00:15:02;;;;;;;12.70;11.03;;;;;;;23.00;100.00;101308.38;2065242;28;20252;-68
2022/07/06 00:16:03;;;;;;;12.63;11.33;;;;;;;22.90;100.00;101295.72;2072925;28;20207;-69
2022/07/06 00:17:04;;;;;;;12.33;11.03;;;;;;;22.97;100.00;101327.13;2072400;28;20208;-68
2022/07/06 00:18:04;;;;;;;14.77;11.20;;;;;;;22.97;100.00;101300.94;2072479;28;20233;-69
2022/07/06 00:19:05;;;;;;;11.83;10.73;;;;;;;22.97;100.00;101296.03;2072034;28;20235;-69
2022/07/06 00:20:06;;;;;;;13.13;11.83;;;;;;;22.99;100.00;101298.38;2067618;28;20651;-68
2022/07/06 00:21:06;;;;;;;14.27;11.33;;;;;;;22.72;100.00;101271.41;2063985;28;20713;-69
2022/07/06 00:22:07;;;;;;;12.93;11.70;;;;;;;22.86;100.00;101303.63;2065774;28;20174;-68
2022/07/06 00:23:08;;;;;;;12.40;11.13;;;;;;;22.87;100.00;101293.91;2071550;28;20456;-69
2022/07/06 00:24:08;;;;;;;13.03;11.40;;;;;;;21.89;100.00;101148.41;2072000;28;20697;-68
2022/07/06 00:25:09;;;;;;;14.50;11.47;;;;;;;22.30;100.00;101200.66;2072650;28;20269;-69
2022/07/06 00:26:09;;;;;;;13.57;11.33;;;;;;;22.75;100.00;101278.91;2072597;28;20196;-68
2022/07/06 00:27:10;;;;;;;14.80;12.00;;;;;;;22.84;100.00;101287.19;2072255;28;20185;-69
2022/07/06 00:28:10;;;;;;;13.20;11.70;;;;;;;22.85;100.00;101280.28;2071616;28;20216;-69
2022/07/06 00:29:11;;;;;;;15.00;11.87;;;;;;;22.82;100.00;101289.72;2071570;28;20190;-69
2022/07/06 00:30:12;;;;;;;12.37;11.03;;;;;;;22.85;100.00;101287.97;2072339;28;20233;-69
2022/07/06 00:31:12;;;;;;;17.97;11.50;;;;;;;22.82;100.00;101284.09;2072263;28;20640;-69
2022/07/06 00:32:13;;;;;;;14.40;12.87;;;;;;;22.86;100.00;101289.50;2065540;28;20178;-69
2022/07/06 00:33:13;;;;;;;13.40;12.10;;;;;;;22.81;100.00;101281.75;2064025;28;20174;-69
2022/07/06 00:34:14;;;;;;;13.87;11.30;;;;;;;22.81;100.00;101282.53;2071519;28;20232;-69
2022/07/06 00:35:15;;;;;;;14.93;11.90;;;;;;;22.03;100.00;101172.94;2072374;28;20272;-69
2022/07/06 00:36:15;;;;;;;12.40;11.10;;;;;;;22.70;100.00;101279.63;2072349;28;20189;-69
2022/07/06 00:37:16;;;;;;;13.47;10.80;;;;;;;22.65;100.00;101282.38;2072035;28;20690;-69
2022/07/06 00:38:16;;;;;;;13.57;10.73;;;;;;;22.57;100.00;101293.34;2071352;28;20284;-69
2022/07/06 00:39:19;;;;;;;14.60;11.50;;;;;;;22.51;100.00;101288.94;2069452;28;20249;-69
2022/07/06 00:40:19;;;;;;;12.10;10.87;;;;;;;22.42;100.00;101300.38;2065010;28;20235;-69
2022/07/06 00:41:20;;;;;;;11.80;10.60;;;;;;;22.43;100.00;101282.94;2064567;28;20511;-69
2022/07/06 00:42:20;;;;;;;14.17;11.23;;;;;;;22.27;100.00;101275.03;2071782;28;20236;-69
2022/07/06 00:43:21;;;;;;;12.17;11.07;;;;;;;22.27;100.00;101280.69;2071553;28;20208;-69
2022/07/06 00:44:21;;;;;;;12.80;11.40;;;;;;;21.67;100.00;101189.69;2070709;28;20197;-69
2022/07/06 00:45:23;;;;;;;14.43;11.17;;;;;;;22.27;100.00;101280.69;2072222;28;20197;-69
2022/07/06 00:46:30;;;;;;;11.87;10.47;;;;;;;22.12;100.00;101280.03;2072509;28;20690;-69
2022/07/06 00:47:30;;;;;;;11.97;10.77;;;;;;;21.15;100.00;101135.22;2071654;28;20448;-69
2022/07/06 00:48:31;;;;;;;14.63;11.97;;;;;;;22.02;100.00;101280.66;2072001;28;20417;-69
2022/07/06 00:50:50;;;;;;;15.10;13.30;;;;;;;21.80;100.00;101281.16;2069606;28;20232;-69
2022/07/06 00:51:51;;;;;;;15.77;13.43;;;;;;;21.84;100.00;101280.94;2064629;28;20421;-69
2022/07/06 00:52:54;;;;;;;14.00;11.77;;;;;;;21.87;100.00;101279.97;2071534;28;20176;-68
2022/07/06 00:53:56;;;;;;;23.40;12.27;;;;;;;21.88;100.00;101285.13;2072473;28;20170;-68
2022/07/06 00:54:57;;;;;;;14.47;11.77;;;;;;;21.89;100.00;101274.59;2064606;28;20510;-68
2022/07/06 00:55:58;;;;;;;13.07;11.60;;;;;;;21.93;100.00;101278.00;2068106;28;20459;-69
2022/07/06 00:56:58;;;;;;;13.60;11.70;;;;;;;21.94;100.00;101283.16;2072228;28;20452;-68
2022/07/06 00:58:02;;;;;;;17.37;12.33;;;;;;;21.86;100.00;101275.59;2071414;28;20255;-68
2022/07/06 00:59:03;;;;;;;13.70;12.13;;;;;;;21.94;100.00;101282.34;2072307;28;20675;-68
2022/07/06 01:00:06;;;;;;;13.57;11.53;;;;;;;21.96;100.00;101282.66;2073628;28;20482;-69
2022/07/06 01:01:06;;;;;;;12.90;11.67;;;;;;;21.90;100.00;101270.53;2071650;28;20517;-69
2022/07/06 01:02:06;;;;;;;13.17;11.37;;;;;;;21.92;100.00;101277.22;2065551;28;20428;-68
2022/07/06 01:03:07;;;;;;;13.47;11.67;;;;;;;21.61;100.00;101229.13;2073780;28;20170;-69
2022/07/06 01:04:07;;;;;;;13.80;11.33;;;;;;;20.97;100.00;101138.28;2073676;28;20340;-68
2022/07/06 01:05:10;;;;;;;13.00;11.23;;;;;;;21.81;100.00;101265.03;2073887;28;20686;-69
2022/07/06 01:06:10;;;;;;;14.87;11.80;;;;;;;21.48;100.00;101211.75;2073779;28;20262;-69
2022/07/06 01:07:11;;;;;;;13.10;11.90;;;;;;;21.86;100.00;101273.53;2081415;28;20447;-69
2022/07/06 01:08:12;;;;;;;12.30;11.20;;;;;;;21.89;100.00;101269.75;2081321;28;20213;-69
2022/07/06 01:09:12;;;;;;;13.70;11.60;;;;;;;21.90;100.00;101267.72;2065271;28;20237;-69
2022/07/06 01:10:15;;;;;;;13.33;11.87;;;;;;;21.85;100.00;101271.25;2066876;28;20179;-69
2022/07/06 01:11:18;;;;;;;12.53;10.53;;;;;;;21.82;100.00;101269.41;2073642;28;20206;-69
2022/07/06 01:12:19;;;;;;;13.73;11.20;;;;;;;20.86;100.00;101135.28;2073491;28;20861;-69
2022/07/06 01:13:19;;;;;;;13.83;11.63;;;;;;;21.38;100.00;101218.81;2073087;28;20444;-69
2022/07/06 01:14:20;;;;;;;11.27;9.97;;;;;;;21.78;100.00;101274.47;2073665;28;20193;-69
2022/07/06 01:15:23;;;;;;;12.03;10.47;;;;;;;21.02;100.00;101170.63;2072856;28;20243;-69
2022/07/06 01:16:24;;;;;;;12.07;10.80;;;;;;;20.88;100.00;101135.56;2072742;28;20687;-69
2022/07/06 01:17:25;;;;;;;14.00;11.37;;;;;;;21.84;100.00;101281.75;2069074;28;20806;-68
2022/07/06 01:18:26;;;;;;;13.07;10.70;;;;;;;21.18;100.00;101213.13;2073602;28;20184;-69
2022/07/06 01:19:27;;;;;;;11.67;10.47;;;;;;;21.73;100.00;101281.59;2073047;28;20563;-69
2022/07/06 01:20:29;;;;;;;12.47;10.83;;;;;;;21.11;100.00;101187.41;2072655;28;20705;-68
2022/07/06 01:21:29;;;;;;;11.97;10.27;;;;;;;21.77;100.00;101281.38;2073306;28;20184;-69
2022/07/06 01:22:30;;;;;;;11.93;10.07;;;;;;;21.78;100.00;101288.56;2064641;28;20455;-69
2022/07/06 01:23:30;;;;;;;14.73;11.13;;;;;;;21.43;100.00;101232.19;2072066;28;20590;-69
2022/07/06 01:24:31;;;;;;;11.47;10.23;;;;;;;21.79;100.00;101285.25;2073340;28;20198;-69
2022/07/06 01:25:32;;;;;;;13.20;10.17;;;;;;;21.79;100.00;101284.47;2073446;28;20277;-69
2022/07/06 01:26:32;;;;;;;11.90;10.40;;;;;;;21.78;100.00;101280.09;2073203;28;20572;-69
2022/07/06 01:27:38;;;;;;;11.83;10.63;;;;;;;21.78;100.00;101282.94;2071675;28;20623;-68
2022/07/06 01:28:39;;;;;;;14.50;10.80;;;;;;;21.57;100.00;101250.31;2074057;28;20189;-69
2022/07/06 01:29:39;;;;;;;13.90;10.67;;;;;;;21.39;100.00;101223.16;2081078;28;20423;-69
2022/07/06 01:30:40;;;;;;;12.97;10.97;;;;;;;21.76;100.00;101277.81;2073953;28;20181;-69
2022/07/06 01:31:50;;;;;;;11.73;10.57;;;;;;;21.77;100.00;101287.03;2073067;28;20197;-69
2022/07/06 01:32:51;;;;;;;11.43;10.33;;;;;;;21.79;100.00;101287.28;2072517;28;20197;-69
2022/07/06 01:33:54;;;;;;;12.13;10.93;;;;;;;21.81;100.00;101282.72;2072671;28;20445;-69
2022/07/06 01:34:55;;;;;;;13.53;11.20;;;;;;;21.85;100.00;101282.53;2068107;28;20197;-68
2022/07/06 01:35:55;;;;;;;12.87;10.87;;;;;;;21.88;100.00;101279.50;2073583;28;20442;-69
2022/07/06 01:36:56;;;;;;;10.77;8.97;;;;;;;21.86;100.00;101269.97;2073013;28;20205;-69
2022/07/06 01:37:56;;;;;;;11.30;8.73;;;;;;;21.91;100.00;101286.19;2073306;28;20214;-68
2022/07/06 01:38:58;;;;;;;11.60;8.77;;;;;;;21.39;100.00;101217.53;2073111;28;20178;-68
2022/07/06 01:40:03;;;;;;;10.30;8.57;;;;;;;21.86;100.00;101284.06;2072835;28;20174;-68
2022/07/06 01:41:06;;;;;;;11.73;8.40;;;;;;;21.90;100.00;101281.81;2073592;28;20458;-68
2022/07/06 01:42:07;;;;;;;9.97;7.60;;;;;;;21.88;100.00;101278.69;2065441;28;20421;-68
2022/07/06 01:43:07;;;;;;;12.43;8.40;;;;;;;21.85;100.00;101271.25;2072087;28;20470;-69
2022/07/06 01:44:08;;;;;;;9.73;7.80;;;;;;;21.82;100.00;101267.38;2072937;28;20253;-69
2022/07/06 01:45:10;;;;;;;13.07;7.53;;;;;;;21.80;100.00;101272.69;2068749;28;20222;-68
2022/07/06 01:46:11;;;;;;;12.30;7.80;;;;;;;21.83;100.00;101271.72;2069124;28;20196;-69
2022/07/06 01:47:11;;;;;;;10.20;7.77;;;;;;;21.82;100.00;101267.38;2073462;28;20447;-68
2022/07/06 01:48:12;;;;;;;13.20;7.97;;;;;;;21.81;100.00;101270.66;2071827;28;20423;-68
2022/07/06 01:49:12;;;;;;;12.73;8.00;;;;;;;21.76;100.00;101277.00;2064863;28;20242;-69
2022/07/06 01:50:13;;;;;;;8.60;7.30;;;;;;;21.69;100.00;101269.00;2073467;28;20181;-69
2022/07/06 01:51:13;;;;;;;10.23;7.60;;;;;;;20.82;100.00;101148.03;2073127;28;20600;-68
2022/07/06 01:52:14;;;;;;;9.70;7.50;;;;;;;20.87;100.00;101156.56;2072931;28;20736;-68
2022/07/06 01:53:14;;;;;;;9.60;7.47;;;;;;;21.67;100.00;101282.75;2072897;28;20209;-68
2022/07/06 01:54:15;;;;;;;9.63;7.93;;;;;;;21.53;100.00;101261.03;2073239;28;20212;-69
2022/07/06 01:55:15;;;;;;;13.50;8.40;;;;;;;21.71;100.00;101289.78;2070433;28;20277;-69
2022/07/06 01:56:20;;;;;;;10.67;8.00;;;;;;;21.70;100.00;101284.63;2067303;28;20179;-69
2022/07/06 01:57:20;;;;;;;11.37;7.73;;;;;;;21.69;100.00;101283.84;2073321;28;20180;-69
2022/07/06 01:58:21;;;;;;;8.63;7.70;;;;;;;21.78;100.00;101297.03;2073175;28;20483;-68
2022/07/06 01:59:21;;;;;;;11.00;8.57;;;;;;;21.80;100.00;101302.97;2065301;28;20197;-68
2022/07/06 02:00:22;;;;;;;10.30;7.90;;;;;;;21.79;100.00;101302.19;2072458;28;20228;-68
2022/07/06 02:01:22;;;;;;;10.10;8.27;;;;;;;21.77;100.00;101303.97;2073231;28;20244;-68
2022/07/06 02:02:23;;;;;;;10.27;8.40;;;;;;;21.77;100.00;101303.97;2072707;28;20201;-68
2022/07/06 02:03:23;;;;;;;9.13;8.20;;;;;;;21.38;100.00;101241.34;2073139;28;20204;-68
2022/07/06 02:04:24;;;;;;;11.90;8.27;;;;;;;21.81;100.00;101308.09;2072991;28;20231;-68
2022/07/06 02:05:24;;;;;;;9.83;8.33;;;;;;;21.81;100.00;101308.09;2073171;28;20180;-68
2022/07/06 02:06:25;;;;;;;13.13;8.37;;;;;;;21.79;100.00;101304.22;2073098;28;20188;-68
2022/07/06 02:07:25;;;;;;;9.57;8.00;;;;;;;21.82;100.00;101306.06;2073119;28;20202;-68
2022/07/06 02:08:26;;;;;;;14.40;8.90;;;;;;;21.66;100.00;101279.19;2072663;28;20202;-69
2022/07/06 02:09:26;;;;;;;10.33;7.90;;;;;;;21.89;100.00;101319.75;2072770;28;20189;-68
2022/07/06 02:10:27;;;;;;;9.13;8.23;;;;;;;21.93;100.00;101326.75;2072279;28;20198;-68
2022/07/06 02:11:28;;;;;;;11.90;8.13;;;;;;;21.88;100.00;101321.03;2068301;28;20255;-68
2022/07/06 02:12:29;;;;;;;11.57;8.00;;;;;;;21.88;100.00;101318.19;2066650;28;20690;-69
2022/07/06 02:13:29;;;;;;;9.23;7.50;;;;;;;21.93;100.00;101318.28;2073115;28;20785;-69
2022/07/06 02:14:30;;;;;;;11.87;8.70;;;;;;;21.94;100.00;101319.03;2072838;28;20689;-68
2022/07/06 02:15:30;;;;;;;9.77;8.50;;;;;;;21.98;100.00;101326.03;2073661;28;20651;-69
2022/07/06 02:16:31;;;;;;;11.00;8.87;;;;;;;21.70;100.00;101274.13;2073301;28;20211;-68
2022/07/06 02:17:31;;;;;;;13.63;8.60;;;;;;;22.02;100.00;101325.81;2066650;28;20194;-68
2022/07/06 02:18:31;;;;;;;10.77;8.97;;;;;;;22.07;100.00;101330.78;2065357;28;20202;-69
2022/07/06 02:19:32;;;;;;;10.13;8.33;;;;;;;22.02;100.00;101320.19;2068929;28;20284;-68
2022/07/06 02:20:33;;;;;;;11.73;8.30;;;;;;;22.01;100.00;101318.63;2069871;28;20198;-68
2022/07/06 02:21:33;;;;;;;11.97;8.43;;;;;;;21.73;100.00;101272.34;2064525;28;20182;-68
2022/07/06 02:22:33;;;;;;;10.90;8.53;;;;;;;21.88;100.00;101293.59;2063641;28;20251;-68
2022/07/06 02:23:34;;;;;;;13.70;8.83;;;;;;;22.16;100.00;101322.16;2065498;28;20170;-68
2022/07/06 02:24:35;;;;;;;10.03;9.03;;;;;;;22.18;100.00;101325.25;2072879;28;20718;-68
2022/07/06 02:25:35;;;;;;;14.13;8.50;;;;;;;21.78;100.00;101272.44;2065895;28;20754;-68
2022/07/06 02:26:36;;;;;;;11.80;8.37;;;;;;;22.12;100.00;101325.19;2071227;28;20268;-68
2022/07/06 02:27:36;;;;;;;11.60;8.73;;;;;;;22.12;100.00;101333.66;2073170;28;20280;-68
2022/07/06 02:28:37;;;;;;;13.23;8.67;;;;;;;22.16;100.00;101328.56;2072937;28;20190;-68
2022/07/06 02:29:37;;;;;;;10.53;8.30;;;;;;;22.19;100.00;101327.59;2072996;28;20174;-68
2022/07/06 02:30:38;;;;;;;11.27;8.93;;;;;;;22.19;100.00;101323.97;2073129;28;20182;-68
2022/07/06 02:31:38;;;;;;;13.27;9.10;;;;;;;22.23;100.00;101333.00;2072426;28;20170;-68
2022/07/06 02:32:39;;;;;;;10.00;8.70;;;;;;;21.28;100.00;101177.16;2073050;28;20652;-68
2022/07/06 02:33:40;;;;;;;11.43;9.20;;;;;;;22.25;100.00;101341.75;2073152;28;20259;-68
2022/07/06 02:34:40;;;;;;;9.90;8.87;;;;;;;22.26;100.00;101334.84;2067360;28;20205;-68
2022/07/06 02:35:42;;;;;;;11.03;8.70;;;;;;;22.26;100.00;101332.03;2073046;28;20464;-68
2022/07/06 02:36:43;;;;;;;12.53;8.80;;;;;;;22.24;100.00;101321.22;2073222;28;20614;-68
2022/07/06 02:37:43;;;;;;;10.17;8.40;;;;;;;22.20;100.00;101322.69;2070086;28;20438;-68
2022/07/06 02:38:44;;;;;;;12.03;8.77;;;;;;;22.25;100.00;101324.81;2064790;28;20229;-68
2022/07/06 02:39:44;;;;;;;11.83;9.20;;;;;;;22.28;100.00;101321.78;2065630;28;20559;-68
2022/07/06 02:40:45;;;;;;;9.80;8.97;;;;;;;22.24;100.00;101307.13;2073352;28;20575;-68
2022/07/06 02:41:45;;;;;;;10.87;8.77;;;;;;;22.35;100.00;101324.16;2064867;28;20198;-68
2022/07/06 02:42:45;;;;;;;10.83;8.57;;;;;;;22.36;100.00;101320.06;2071064;28;20197;-68
2022/07/06 02:43:46;;;;;;;10.97;8.70;;;;;;;22.39;100.00;101321.91;2069823;28;20241;-68
2022/07/06 02:44:46;;;;;;;10.07;9.03;;;;;;;22.42;100.00;101320.91;2072627;28;20260;-69
2022/07/06 02:45:47;;;;;;;11.00;9.80;;;;;;;22.44;100.00;101328.88;2072631;28;20532;-68
2022/07/06 02:46:47;;;;;;;10.37;9.10;;;;;;;22.44;100.00;101323.22;2072935;28;20184;-68
2022/07/06 02:47:48;;;;;;;12.37;10.03;;;;;;;22.43;100.00;101328.13;2072674;28;20205;-68
2022/07/06 02:48:48;;;;;;;11.67;9.97;;;;;;;22.41;100.00;101318.59;2073230;28;20193;-68
2022/07/06 02:49:49;;;;;;;9.67;8.50;;;;;;;22.30;100.00;101319.25;2072884;28;20580;-68
2022/07/06 02:50:49;;;;;;;9.60;8.30;;;;;;;21.78;100.00;101240.63;2072800;28;20198;-68
2022/07/06 02:51:50;;;;;;;10.60;8.87;;;;;;;22.23;100.00;101313.25;2072443;28;20604;-68
2022/07/06 02:52:51;;;;;;;11.80;8.50;;;;;;;22.25;100.00;101319.94;2072647;28;20209;-69
2022/07/06 02:53:51;;;;;;;12.37;10.10;;;;;;;22.28;100.00;101316.16;2072705;28;20190;-68
2022/07/06 02:54:53;;;;;;;10.43;8.40;;;;;;;21.38;100.00;101190.59;2072993;28;20207;-68
2022/07/06 02:55:53;;;;;;;11.47;8.80;;;;;;;22.29;100.00;101319.72;2072582;28;20208;-68
2022/07/06 02:56:54;;;;;;;10.83;8.77;;;;;;;21.75;100.00;101236.72;2072304;28;20432;-68
2022/07/06 02:57:54;;;;;;;10.60;9.37;;;;;;;22.31;100.00;101320.03;2072754;28;20177;-68
2022/07/06 02:58:55;;;;;;;11.23;8.77;;;;;;;22.34;100.00;101327.50;2065650;28;20588;-68
2022/07/06 02:59:55;;;;;;;13.43;8.20;;;;;;;22.18;100.00;101306.28;2070813;28;20194;-68
2022/07/06 03:00:55;;;;;;;11.20;8.10;;;;;;;22.39;100.00;101329.59;2072711;28;20224;-68
2022/07/06 03:01:56;;;;;;;11.97;9.10;;;;;;;22.41;100.00;101333.47;2071955;28;20197;-68
2022/07/06 03:02:57;;;;;;;9.00;8.07;;;;;;;21.88;100.00;101250.47;2072484;28;20220;-69
2022/07/06 03:03:57;;;;;;;8.33;7.53;;;;;;;22.23;100.00;101296.31;2071374;28;20205;-68
2022/07/06 03:04:58;;;;;;;10.73;8.03;;;;;;;22.13;100.00;101277.97;2065389;28;20319;-68
2022/07/06 03:05:58;;;;;;;9.60;7.90;;;;;;;22.42;100.00;101318.06;2073140;28;20257;-68
2022/07/06 03:06:59;;;;;;;9.53;7.83;;;;;;;22.41;100.00;101329.91;2065295;28;20632;-68
2022/07/06 03:08:00;;;;;;;10.30;7.63;;;;;;;22.41;100.00;101325.00;2070813;28;20185;-68
2022/07/06 03:09:01;;;;;;;9.97;7.93;;;;;;;22.40;100.00;101317.81;2072690;28;20202;-68
2022/07/06 03:10:02;;;;;;;11.30;7.93;;;;;;;22.42;100.00;101323.72;2072841;28;20246;-68
2022/07/06 03:11:03;;;;;;;9.97;8.03;;;;;;;22.43;100.00;101328.13;2072486;28;20436;-68
2022/07/06 03:12:03;;;;;;;11.43;8.37;;;;;;;22.34;100.00;101319.00;2070156;28;20714;-68
2022/07/06 03:13:04;;;;;;;9.63;8.63;;;;;;;21.63;100.00;101220.94;2070342;28;20326;-68
2022/07/06 03:14:05;;;;;;;11.80;8.57;;;;;;;22.30;100.00;101332.56;2073323;28;20671;-68
2022/07/06 03:15:09;;;;;;;9.47;8.30;;;;;;;22.34;100.00;101333.13;2073092;28;20280;-68
2022/07/06 03:16:09;;;;;;;11.03;7.70;;;;;;;22.32;100.00;101338.50;2072474;28;20811;-68
2022/07/06 03:17:10;;;;;;;9.40;8.50;;;;;;;22.24;100.00;101328.91;2072763;28;20472;-68
2022/07/06 03:18:10;;;;;;;9.43;8.10;;;;;;;22.39;100.00;101346.53;2072770;28;20204;-68
2022/07/06 03:19:11;;;;;;;11.50;8.20;;;;;;;21.76;100.00;101243.16;2072476;28;20186;-68
2022/07/06 03:20:11;;;;;;;10.07;8.43;;;;;;;22.36;100.00;101339.84;2069787;28;20196;-68
2022/07/06 03:21:12;;;;;;;10.23;8.13;;;;;;;22.25;100.00;101333.28;2070887;28;20252;-68
2022/07/06 03:22:13;;;;;;;12.83;9.20;;;;;;;22.39;100.00;101349.38;2064327;28;20253;-68
2022/07/06 03:23:13;;;;;;;9.20;7.73;;;;;;;22.35;100.00;101343.94;2072818;28;20254;-68
2022/07/06 03:24:13;;;;;;;9.53;8.53;;;;;;;22.28;100.00;101343.59;2072670;28;20628;-68
2022/07/06 03:25:14;;;;;;;10.43;9.03;;;;;;;22.10;100.00;101321.31;2072330;28;20565;-68
2022/07/06 03:26:14;;;;;;;11.40;9.27;;;;;;;22.26;100.00;101344.09;2072694;28;20212;-68
2022/07/06 03:27:15;;;;;;;11.07;8.90;;;;;;;22.38;100.00;101347.81;2072919;28;20916;-68
2022/07/06 03:28:15;;;;;;;11.80;9.10;;;;;;;21.78;100.00;101251.91;2072619;28;20236;-68
2022/07/06 03:29:16;;;;;;;9.83;8.83;;;;;;;22.11;100.00;101289.00;2072034;28;20256;-69
2022/07/06 03:30:17;;;;;;;9.63;8.60;;;;;;;22.49;100.00;101354.41;2072515;28;20707;-68
2022/07/06 03:31:17;;;;;;;11.90;8.70;;;;;;;22.33;100.00;101321.09;2073053;28;20560;-68
2022/07/06 03:32:18;;;;;;;9.77;8.70;;;;;;;22.55;100.00;101360.88;2065356;28;20218;-68
2022/07/06 03:33:18;;;;;;;13.33;8.87;;;;;;;22.03;100.00;101277.34;2070746;28;20221;-68
2022/07/06 03:34:19;;;;;;;11.93;9.17;;;;;;;22.60;100.00;101365.81;2065884;28;20188;-68
2022/07/06 03:35:19;;;;;;;12.80;8.90;;;;;;;22.64;100.00;101366.38;2069587;28;20193;-68
2022/07/06 03:36:20;;;;;;;11.93;9.57;;;;;;;21.93;100.00;101256.19;2067647;28;20254;-68
2022/07/06 03:37:20;;;;;;;10.30;9.30;;;;;;;22.52;100.00;101341.34;2072602;28;20260;-68
2022/07/06 03:38:21;;;;;;;10.63;9.53;;;;;;;22.65;100.00;101367.94;2072746;28;20193;-68
2022/07/06 03:39:21;;;;;;;10.03;9.03;;;;;;;22.68;100.00;101368.97;2072166;28;20182;-68
2022/07/06 03:40:22;;;;;;;12.77;9.60;;;;;;;22.74;100.00;101376.25;2067107;28;20231;-68
2022/07/06 03:41:22;;;;;;;9.87;7.80;;;;;;;22.74;100.00;101373.44;2072712;28;20213;-68
2022/07/06 03:42:23;;;;;;;10.60;7.70;;;;;;;22.71;100.00;101360.28;2071700;28;20193;-68
2022/07/06 03:43:23;;;;;;;11.33;7.67;;;;;;;22.79;100.00;101369.88;2067595;28;20197;-68
2022/07/06 03:44:24;;;;;;;9.50;8.07;;;;;;;22.85;100.00;101367.88;2071758;28;20576;-68
2022/07/06 03:45:24;;;;;;;12.13;8.57;;;;;;;22.89;100.00;101370.47;2072356;28;20232;-68
2022/07/06 03:46:25;;;;;;;13.20;8.40;;;;;;;22.79;100.00;101352.94;2072412;28;20667;-68
2022/07/06 03:47:26;;;;;;;13.13;9.07;;;;;;;22.95;100.00;101369.25;2072287;28;20220;-68
2022/07/06 03:48:26;;;;;;;10.63;8.97;;;;;;;22.84;100.00;101362.72;2073146;28;20703;-68
2022/07/06 03:49:27;;;;;;;9.37;8.43;;;;;;;22.71;100.00;101325.59;2072250;28;20276;-68
2022/07/06 03:50:27;;;;;;;8.37;7.43;;;;;;;22.98;100.00;101370.31;2072657;28;20189;-68
2022/07/06 03:51:28;;;;;;;9.33;7.33;;;;;;;22.99;100.00;101361.34;2072649;28;20193;-68
2022/07/06 03:52:28;;;;;;;9.83;7.67;;;;;;;23.05;100.00;101367.03;2070592;28;20276;-68
2022/07/06 03:53:29;;;;;;;10.53;7.53;;;;;;;22.20;100.00;101221.06;2071783;28;20197;-68
2022/07/06 03:54:30;;;;;;;8.47;7.57;;;;;;;23.11;100.00;101354.50;2072744;28;20555;-68
2022/07/06 03:55:31;;;;;;;8.40;7.57;;;;;;;23.01;100.00;101338.19;2072062;28;20548;-68
2022/07/06 03:56:32;;;;;;;8.40;7.50;;;;;;;23.19;100.00;101349.19;2064991;28;20289;-68
2022/07/06 03:57:33;;;;;;;10.97;7.93;;;;;;;23.24;100.00;101351.28;2072271;28;20564;-68
2022/07/06 03:58:33;;;;;;;8.60;7.70;;;;;;;23.25;100.00;101350.00;2072389;28;20194;-69
2022/07/06 03:59:34;;;;;;;9.50;7.80;;;;;;;22.89;100.00;101305.47;2072139;28;20191;-68
2022/07/06 04:00:34;;;;;;;8.73;7.23;;;;;;;23.20;100.00;101336.59;2072287;28;20189;-68
2022/07/06 04:01:35;;;;;;;14.60;7.67;;;;;;;23.28;100.00;101346.19;2072452;28;20583;-68
2022/07/06 04:02:35;;;;;;;11.83;8.27;;;;;;;23.29;100.00;101351.31;2071691;28;20181;-68
2022/07/06 04:03:36;;;;;;;10.67;8.07;;;;;;;22.73;100.00;101269.38;2072447;28;20173;-68
2022/07/06 04:04:36;;;;;;;10.77;7.53;;;;;;;23.22;100.00;101343.28;2072291;28;20688;-68
2022/07/06 04:05:37;;;;;;;9.37;7.43;;;;;;;23.15;100.00;101349.41;2064837;28;20175;-68
2022/07/06 04:06:38;;;;;;;8.13;7.33;;;;;;;23.17;100.00;101349.66;2071416;28;20201;-68
2022/07/06 04:07:38;;;;;;;10.20;7.93;;;;;;;22.99;100.00;101320.97;2066234;28;20198;-68
2022/07/06 04:08:39;;;;;;;10.90;7.40;;;;;;;22.56;100.00;101257.91;2068989;28;20652;-68
2022/07/06 04:09:39;;;;;;;8.00;7.23;;;;;;;23.16;100.00;101355.81;2072485;28;20197;-69
2022/07/06 04:10:40;;;;;;;10.30;7.60;;;;;;;23.21;100.00;101353.06;2072151;28;20265;-68
2022/07/06 04:11:40;;;;;;;9.57;7.50;;;;;;;;;;2071978;28;20567;-68
2022/07/06 04:12:42;;;;;;;8.93;7.43;;;;;;;23.19;100.00;101360.50;2070187;28;20185;-68
2022/07/06 04:13:42;;;;;;;8.30;7.07;;;;;;;23.21;100.00;101355.09;2071710;28;20176;-68
2022/07/06 04:14:43;;;;;;;8.50;7.30;;;;;;;23.24;100.00;101366.19;2071488;28;20200;-68
2022/07/06 04:15:43;;;;;;;9.17;7.00;;;;;;;22.98;100.00;101319.44;2066080;28;20229;-69
2022/07/06 04:16:44;;;;;;;9.30;7.30;;;;;;;23.24;100.00;101351.28;2069515;28;20208;-68
2022/07/06 04:17:53;;;;;;;9.30;8.07;;;;;;;23.26;100.00;101360.03;2070723;28;20264;-68
2022/07/06 04:18:54;;;;;;;9.90;7.70;;;;;;;23.25;100.00;101353.63;2071665;28;20182;-68
2022/07/06 04:19:54;;;;;;;8.20;7.00;;;;;;;23.23;100.00;101361.06;2071818;28;20198;-68
2022/07/06 04:20:57;;;;;;;8.23;7.43;;;;;;;23.22;100.00;101359.47;2061923;28;20244;-68
2022/07/06 04:21:57;;;;;;;9.37;7.50;;;;;;;23.19;100.00;101360.50;2069187;28;20197;-69
2022/07/06 04:22:58;;;;;;;8.50;7.57;;;;;;;23.23;100.00;101358.97;2072267;28;20185;-69
2022/07/06 04:23:58;;;;;;;8.73;7.50;;;;;;;23.26;100.00;101358.00;2071058;28;20185;-69
2022/07/06 04:24:59;;;;;;;8.53;7.70;;;;;;;23.30;100.00;101360.59;2071350;28;20197;-69
2022/07/06 04:25:59;;;;;;;9.73;7.17;;;;;;;23.26;100.00;101343.84;2071379;28;20233;-69
2022/07/06 04:27:00;;;;;;;8.40;7.27;;;;;;;23.36;100.00;101369.88;2071969;28;20229;-69
2022/07/06 04:28:01;;;;;;;9.67;7.50;;;;;;;22.51;100.00;101232.47;2072034;28;20749;-69
2022/07/06 04:29:01;;;;;;;10.60;7.83;;;;;;;23.35;100.00;101369.13;2068805;28;20487;-69
2022/07/06 04:30:04;;;;;;;9.60;7.63;;;;;;;23.36;100.00;101361.41;2063934;28;20189;-69
2022/07/06 04:31:04;;;;;;;9.33;7.33;;;;;;;23.26;100.00;101372.13;2070401;28;20186;-69
2022/07/06 04:32:05;;;;;;;11.10;7.80;;;;;;;22.23;100.00;101211.63;2070518;28;20950;-68
2022/07/06 04:33:05;;;;;;;9.90;7.60;;;;;;;23.26;100.00;101369.31;2071207;28;20597;-68
2022/07/06 04:34:06;;;;;;;10.87;8.23;;;;;;;23.22;100.00;101374.41;2070325;28;20215;-69
2022/07/06 04:35:07;;;;;;;10.63;7.73;;;;;;;23.18;100.00;101368.19;2069533;28;20194;-68
2022/07/06 04:36:09;;;;;;;7.90;7.27;;;;;;;23.15;100.00;101374.06;2070893;28;20205;-68
2022/07/06 04:37:09;;;;;;;9.00;7.80;;;;;;;23.00;100.00;101357.22;2071129;28;20448;-68
2022/07/06 04:38:09;;;;;;;9.10;8.00;;;;;;;23.13;100.00;101377.38;2071354;28;20514;-68